• Join FlightAware (Why Join?)
  • Login
  • US Flag 
10:28PM EDT


 

Airport Tracker/Info


-or-


 

Live Flight TrackerFlight Track Log ✈ EJA290 ✈ 13-May-2013 ✈ KIAD - KBDL

Flight Track Log - Related Links

Times and Time Zones

All times are in EDT time to prevent confusion due to time zone crossing. See the EJA290 flight status page for this flight to view local times or setup timezone preferences in your user account.

Time Position Orientation Groundspeed Altitude Reporting Facility
EDT Latitude Longitude Course Direction KTS MPH feet Rate Location/Type
10:07AM 38.9833 -77.5167 345° North 211 243 3,100  Level Potomac TRACON
10:08AM 39.0333 -77.5333 345° North 221 254 6,200 2,880 Climbing Potomac TRACON
10:09AM 39.1000 -77.5000 21° North 271 312 8,900 1,380 Climbing Potomac TRACON
10:10AM 39.1667 -77.4500 30° Northeast 303 349 9,000  Climbing Potomac TRACON
10:11AM 39.2000 -77.3500 67° East 310 357 9,000 420 Level Potomac TRACON
10:12AM 39.2500 -77.2667 52° Northeast 299 344 9,900 960 Climbing Potomac TRACON
10:14AM 39.3256 -77.0539 65° Northeast 360 414 12,000 1,020 Climbing Washington Center
10:15AM 39.3064 -76.9111 100° East 371 427 13,000 1,440 Climbing Washington Center
10:16AM 39.2764 -76.7739 106° East 374 430 15,000 1,800 Climbing Washington Center
10:17AM 39.2425 -76.6286 107° East 395 455 16,600 1,680 Climbing Washington Center
10:18AM 39.2061 -76.4808 108° East 415 478 18,400 1,860 Climbing Washington Center
10:19AM 39.1736 -76.3358 106° East 420 483 20,400 1,980 Climbing Washington Center
10:20AM 39.1536 -76.1858 100° East 420 483 22,400 1,260 Climbing Washington Center
10:21AM 39.1711 -76.0067 83° East 427 491 23,000 1,020 Climbing Washington Center
10:22AM 39.2131 -75.8514 71° East 445 512 24,500 960 Climbing Washington Center
10:23AM 39.3258 -75.7122 44° Northeast 470 541 25,000 240 Climbing Washington Center
10:24AM 39.4322 -75.5756 45° Northeast 524 603 25,000  Level Washington Center
10:25AM 39.5364 -75.4381 45° Northeast 537 618 25,000  Level Washington Center
10:26AM 39.6444 -75.2950 46° Northeast 537 618 25,000  Level Washington Center
10:27AM 39.7378 -75.1597 48° Northeast 542 624 25,000  Level Washington Center
10:28AM 39.8306 -75.0256 48° Northeast 559 643 25,000  Level New York Center
10:29AM 39.9358 -74.8778 47° Northeast 559 643 25,000  Level New York Center
10:30AM 40.0456 -74.7133 49° Northeast 547 629 25,000 -60 Level New York Center
10:31AM 40.1344 -74.5475 55° Northeast 547 629 24,900  Descending New York Center
10:32AM 40.2231 -74.3811 55° Northeast 552 635 25,000  Climbing New York Center
10:33AM 40.3133 -74.2142 55° Northeast 557 641 25,000 -60 Level New York Center
10:34AM 40.4014 -74.0497 55° Northeast 557 641 24,900 -720 Descending New York Center
10:35AM 40.5481 -73.7756 55° Northeast 550 633 23,200 -1,260 Descending Boston Center
10:36AM 40.6333 -73.6078 56° Northeast 550 633 21,700 -1,500 Descending Boston Center
10:37AM 40.7203 -73.4450 55° Northeast 550 633 20,200 -1,380 Descending Boston Center
10:38AM 40.8072 -73.2900 53° Northeast 550 633 19,000 -660 Descending Boston Center
10:39AM 40.9142 -73.1625 42° Northeast 519 597 18,900 -660 Descending Boston Center
10:40AM 41.0233 -73.0369 41° Northeast 514 592 17,700 -1,800 Descending Boston Center
10:41AM 41.1261 -72.9169 41° Northeast 504 580 15,300 -2,280 Descending Boston Center
10:42AM 41.1994 -72.8292 42° Northeast 482 555 13,200 -2,640 Descending Boston Center
10:43AM 41.2475 -72.7714 42° Northeast 452 520 11,900 -2,820 Descending Boston Center
10:43AM 41.2872 -72.7383 32° Northeast 428 493 11,200 -1,200 Descending Boston Center
10:43AM 41.3206 -72.7331 North 401 461 11,100 -240 Descending Boston Center
10:44AM 41.4100 -72.7778 339° North 364 419 10,900 -600 Descending Boston Center
10:45AM 41.5206 -72.7533 North 359 413 10,000 -1,200 Descending Boston Center
10:46AM 41.5956 -72.7150 21° North 317 365 8,700 -1,800 Descending Boston Center
10:47AM 41.6644 -72.6819 20° North 301 346 6,900 -1,860 Descending Boston Center
10:48AM 41.7353 -72.6486 19° North 272 313 5,200 -1,440 Descending Boston Center
10:49AM 41.8042 -72.6156 20° North 266 306 4,000 -600 Descending Boston Center
10:50AM 41.8708 -72.5878 17° North 234 269 4,100 -240 Climbing Boston Center
10:51AM 41.9211 -72.5461 32° Northeast 218 251 3,600 -600 Descending Boston Center
10:52AM 41.9731 -72.5156 24° Northeast 202 232 3,000 -780 Descending Boston Center
10:53AM 42.0106 -72.5631 317° Northwest 192 221 2,100 -720 Descending Boston Center
10:54AM 41.9939 -72.6161 247° West 142 163 1,500 -660 Descending Boston Center
10:55AM 41.9689 -72.6467 222° Southwest 131 151 800 -840 Descending Boston Center
10:59AM 41.9333 -72.6833 45° Northeast  Level FlightAware Approximate
11:06AM 41.9392 -72.6834 45° Northeast  Level Estimated
11:07AM 41.9333 -72.6833 45° Northeast  Level FlightAware Approximate
11:08AM 41.9392 -72.6834 45° Northeast  Level Estimated
11:09AM 41.9333 -72.6833 45° Northeast  Level FlightAware Approximate